Time;durP1;ratioP1;P1;durP2;ratioP2;P2;SDS_P1;SDS_P2;PMS_P1;PMS_P2;Temp;Humidity;BMP_temperature;BMP_pressure;BME280_temperature;BME280_humidity;BME280_pressure;Samples;Min_cycle;Max_cycle;Signal;HPM_P1;HPM_P2
2022/12/03 00:02:18;;;;;;;;;;;;;;;0.65;95.95;102252.28;5031831;28;19924;-61
2022/12/03 00:04:43;;;;;;;;;;;;;;;0.63;95.90;102251.66;5033063;28;19916;-60
2022/12/03 00:07:08;;;;;;;;;;;;;;;0.64;95.18;102241.59;5034379;28;19917;-60
2022/12/03 00:09:34;;;;;;;;;;;;;;;0.63;95.81;102248.94;5034436;28;19917;-60
2022/12/03 00:11:59;;;;;;;;;;;;;;;0.67;96.27;102249.34;5034449;28;20333;-60
2022/12/03 00:14:24;;;;;;;;;;;;;;;0.64;95.74;102245.16;5034264;28;20326;-59
2022/12/03 00:16:49;;;;;;;;;;;;;;;0.65;96.40;102244.13;5034402;28;19920;-61
2022/12/03 00:19:14;;;;;;;;;;;;;;;0.68;96.29;102242.88;5034562;28;20008;-60
2022/12/03 00:21:40;;;;;;;;;;;;;;;0.74;96.24;102240.16;5034499;28;19924;-60
2022/12/03 00:24:05;;;;;;;;;;;;;;;0.85;94.88;102244.16;5034415;28;20364;-61
2022/12/03 00:26:30;;;;;;;;;;;;;;;0.75;95.24;102241.00;5034132;28;19923;-59
2022/12/03 00:28:56;;;;;;;;;;;;;;;0.71;95.62;102228.84;5034023;28;19924;-61
2022/12/03 00:31:22;;;;;;;;;;;;;;;0.71;95.84;102232.41;5032423;28;20345;-60
2022/12/03 00:33:47;;;;;;;;;;;;;;;0.65;95.56;102230.50;5033998;28;19936;-60
2022/12/03 00:36:13;;;;;;;;;;;;;;;0.62;95.95;102223.56;5034023;28;19913;-61
2022/12/03 00:38:38;;;;;;;;;;;;;;;0.69;95.87;102229.03;5033982;28;19913;-60
2022/12/03 00:41:03;;;;;;;;;;;;;;;0.67;96.23;102230.28;5033698;28;19913;-62
2022/12/03 00:43:28;;;;;;;;;;;;;;;0.68;95.71;102218.34;5033649;28;20103;-60
2022/12/03 00:45:53;;;;;;;;;;;;;;;0.65;96.12;102225.06;5033590;28;19936;-60
2022/12/03 00:48:19;;;;;;;;;;;;;;;0.65;95.90;102225.06;5033513;28;19913;-61
2022/12/03 00:50:44;;;;;;;;;;;;;;;0.64;96.49;102226.09;5033516;28;19920;-62
2022/12/03 00:53:09;;;;;;;;;;;;;;;0.67;95.71;102222.94;5034054;28;19913;-60
2022/12/03 00:55:34;;;;;;;;;;;;;;;0.63;96.15;102224.41;5033242;28;19913;-60
2022/12/03 00:57:59;;;;;;;;;;;;;;;0.67;96.27;102216.66;5031644;28;19913;-61
2022/12/03 01:00:25;;;;;;;;;;;;;;;0.62;96.13;102222.75;5033984;28;19920;-60
2022/12/03 01:02:51;;;;;;;;;;;;;;;0.65;96.49;102221.47;5032308;28;19913;-60
2022/12/03 01:05:16;;;;;;;;;;;;;;;0.64;96.90;102228.81;5033955;28;19912;-60
2022/12/03 01:07:42;;;;;;;;;;;;;;;0.60;96.30;102228.41;5033811;28;19979;-61
2022/12/03 01:10:07;;;;;;;;;;;;;;;0.62;96.46;102223.56;5033356;28;19967;-61
2022/12/03 01:12:32;;;;;;;;;;;;;;;0.58;96.09;102219.59;5033514;28;19920;-61
2022/12/03 01:14:57;;;;;;;;;;;;;;;0.69;96.01;102223.59;5033233;28;19917;-60
2022/12/03 01:17:23;;;;;;;;;;;;;;;0.66;96.03;102218.56;5031737;28;19917;-60
2022/12/03 01:19:51;;;;;;;;;;;;;;;0.64;96.56;102227.97;5032895;28;19917;-60
2022/12/03 01:22:16;;;;;;;;;;;;;;;0.64;96.28;102219.78;5032982;28;20242;-60
2022/12/03 01:24:41;;;;;;;;;;;;;;;0.63;96.53;102221.69;5032797;28;19917;-60
2022/12/03 01:27:06;;;;;;;;;;;;;;;0.66;96.34;102221.28;5032664;28;19920;-62
2022/12/03 01:29:32;;;;;;;;;;;;;;;0.65;96.44;102226.94;5032575;28;19913;-60
2022/12/03 01:32:15;;;;;;;;;;;;;;;0.67;95.94;102220.22;5032635;28;19913;-60
2022/12/03 01:34:41;;;;;;;;;;;;;;;0.65;96.76;102221.47;5032981;28;20026;-60
2022/12/03 01:37:06;;;;;;;;;;;;;;;0.66;96.48;102226.75;5032586;28;20375;-60
2022/12/03 01:39:31;;;;;;;;;;;;;;;0.59;96.13;102221.28;5032789;28;19959;-60
2022/12/03 01:41:57;;;;;;;;;;;;;;;0.67;96.59;102220.22;5032771;28;19913;-60
2022/12/03 01:44:33;;;;;;;;;;;;;;;0.64;96.28;102209.75;5032617;28;19920;-59
2022/12/03 01:47:00;;;;;;;;;;;;;;;0.62;97.25;102215.38;5032530;28;19999;-60
2022/12/03 01:49:27;;;;;;;;;;;;;;;0.60;96.33;102203.03;5032501;28;19917;-61
2022/12/03 01:51:53;;;;;;;;;;;;;;;0.64;96.76;102207.03;5032392;28;19925;-60
2022/12/03 01:54:20;;;;;;;;;;;;;;;0.72;96.32;102205.97;5032285;28;20379;-61
2022/12/03 01:56:46;;;;;;;;;;;;;;;0.69;96.34;102207.25;5029361;28;19917;-61
2022/12/03 01:59:15;;;;;;;;;;;;;;;0.68;96.46;102213.72;5032225;28;20021;-61
2022/12/03 02:01:41;;;;;;;;;;;;;;;0.68;96.76;102202.84;5032215;28;20376;-61
2022/12/03 02:04:08;;;;;;;;;;;;;;;0.68;96.90;102204.72;5032402;28;19944;-61
2022/12/03 02:06:33;;;;;;;;;;;;;;;0.71;97.31;102207.06;5032132;28;20372;-61
2022/12/03 02:08:59;;;;;;;;;;;;;;;0.71;96.49;102204.34;5032003;28;19917;-60
2022/12/03 02:11:30;;;;;;;;;;;;;;;0.71;97.00;102207.06;5032376;28;19913;-60
2022/12/03 02:13:59;;;;;;;;;;;;;;;0.76;97.10;102209.97;5032658;28;20020;-61
2022/12/03 02:16:24;;;;;;;;;;;;;;;0.72;96.61;102205.97;5032513;28;19913;-59
2022/12/03 02:18:51;;;;;;;;;;;;;;;0.73;96.08;102204.94;5032361;28;19920;-62
2022/12/03 02:21:25;;;;;;;;;;;;;;;0.66;96.24;102206.81;5031921;28;19919;-61
2022/12/03 02:23:50;;;;;;;;;;;;;;;0.75;95.88;102206.44;5032148;28;19916;-61
2022/12/03 02:26:15;;;;;;;;;;;;;;;0.68;95.90;102199.28;5032295;28;19924;-62
2022/12/03 02:28:40;;;;;;;;;;;;;;;0.69;96.53;102199.06;5032270;28;19966;-61
2022/12/03 02:31:06;;;;;;;;;;;;;;;0.70;96.66;102205.38;5032144;28;19916;-61
2022/12/03 02:33:31;;;;;;;;;;;;;;;0.66;96.65;102198.66;5032344;28;20288;-61
2022/12/03 02:35:57;;;;;;;;;;;;;;;0.67;96.57;102195.72;5032432;28;19935;-61
2022/12/03 02:38:24;;;;;;;;;;;;;;;0.67;96.67;102187.53;5032552;28;19913;-61
2022/12/03 02:40:51;;;;;;;;;;;;;;;0.73;96.67;102191.31;5032303;28;19999;-61
2022/12/03 02:43:18;;;;;;;;;;;;;;;0.76;96.77;102191.75;5032362;28;19919;-61
2022/12/03 02:45:46;;;;;;;;;;;;;;;0.75;97.09;102190.09;5032241;28;19917;-61
2022/12/03 02:48:16;;;;;;;;;;;;;;;0.70;96.44;102181.69;5032116;28;19919;-61
2022/12/03 02:50:45;;;;;;;;;;;;;;;0.65;96.79;102184.19;5031959;28;19963;-61
2022/12/03 02:53:13;;;;;;;;;;;;;;;0.65;96.33;102183.34;5031942;28;19931;-61
2022/12/03 02:55:39;;;;;;;;;;;;;;;0.64;97.20;102185.25;5029404;28;20332;-62
2022/12/03 02:58:05;;;;;;;;;;;;;;;0.68;97.44;102185.66;5030772;28;19963;-61
2022/12/03 03:00:30;;;;;;;;;;;;;;;0.66;96.56;102188.59;5032353;28;20307;-61
2022/12/03 03:02:55;;;;;;;;;;;;;;;0.64;97.38;102185.25;5032327;28;19917;-62
2022/12/03 03:05:22;;;;;;;;;;;;;;;0.61;97.01;102186.47;5032045;28;19970;-61
2022/12/03 03:07:48;;;;;;;;;;;;;;;0.63;96.88;102191.72;5031970;28;19917;-61
2022/12/03 03:10:15;;;;;;;;;;;;;;;0.59;97.20;102188.59;5031975;28;19913;-59
2022/12/03 03:12:40;;;;;;;;;;;;;;;0.59;97.02;102179.56;5032154;28;19920;-60
2022/12/03 03:15:06;;;;;;;;;;;;;;;0.59;97.56;102179.56;5031992;28;20269;-60
2022/12/03 03:17:31;;;;;;;;;;;;;;;0.66;97.04;102176.84;5032058;28;19928;-60
2022/12/03 03:19:56;;;;;;;;;;;;;;;0.58;97.22;102180.59;5032618;28;19923;-60
2022/12/03 03:22:30;;;;;;;;;;;;;;;0.62;97.05;102174.53;5035480;28;19917;-60
2022/12/03 03:24:55;;;;;;;;;;;;;;;0.70;96.92;102169.97;5035760;28;19994;-60
2022/12/03 03:27:20;;;;;;;;;;;;;;;0.60;97.43;102170.34;5035402;28;20003;-60
2022/12/03 03:29:45;;;;;;;;;;;;;;;0.59;97.15;102164.06;5035286;28;19912;-60
2022/12/03 03:32:10;;;;;;;;;;;;;;;0.59;97.50;102163.22;5035089;28;19913;-62
2022/12/03 03:34:36;;;;;;;;;;;;;;;0.58;98.22;102169.72;5035093;28;19960;-59
2022/12/03 03:37:01;;;;;;;;;;;;;;;0.57;97.39;102171.59;5035289;28;20020;-59
2022/12/03 03:39:26;;;;;;;;;;;;;;;0.56;97.87;102164.47;5035122;28;19935;-59
2022/12/03 03:41:51;;;;;;;;;;;;;;;0.58;97.66;102169.72;5034725;28;19979;-59
2022/12/03 03:44:17;;;;;;;;;;;;;;;0.59;98.21;102171.38;5034861;28;20347;-62
2022/12/03 03:46:42;;;;;;;;;;;;;;;0.61;97.50;102161.97;5034718;28;19920;-59
2022/12/03 03:49:09;;;;;;;;;;;;;;;0.64;97.52;102149.84;5034694;28;19913;-60
2022/12/03 03:51:35;;;;;;;;;;;;;;;0.63;97.49;102156.31;5034842;28;19943;-60
2022/12/03 03:54:02;;;;;;;;;;;;;;;0.65;97.85;102151.53;5034745;28;20060;-60
2022/12/03 03:56:28;;;;;;;;;;;;;;;0.63;98.19;102153.59;5032242;28;19913;-59
2022/12/03 03:58:54;;;;;;;;;;;;;;;0.63;97.84;102164.50;5033176;28;19916;-63
2022/12/03 04:01:19;;;;;;;;;;;;;;;0.67;97.35;102154.84;5034437;28;19928;-61
2022/12/03 04:03:44;;;;;;;;;;;;;;;0.62;97.21;102160.09;5034682;28;19917;-60
2022/12/03 04:06:10;;;;;;;;;;;;;;;0.61;97.25;102155.69;5034337;28;20002;-60
2022/12/03 04:08:35;;;;;;;;;;;;;;;0.61;96.93;102159.25;5034599;28;19917;-60
2022/12/03 04:13:44;;;;;;;;;;;;;;;0.63;97.75;102153.59;5034395;28;19936;-60
2022/12/03 04:16:09;;;;;;;;;;;;;;;0.66;97.63;102155.91;5034021;28;20331;-60
2022/12/03 04:18:43;;;;;;;;;;;;;;;0.61;97.17;102152.97;5034268;28;19920;-60
2022/12/03 04:23:56;;;;;;;;;;;;;;;0.65;97.61;102147.94;5034235;28;19936;-62
2022/12/03 04:29:06;;;;;;;;;;;;;;;0.65;98.31;102150.66;5033751;28;19935;-61
2022/12/03 04:36:58;;;;;;;;;;;;;;;0.66;98.27;102149.63;5033933;28;19966;-61
2022/12/03 04:39:24;;;;;;;;;;;;;;;0.68;97.80;102156.53;5033549;28;19916;-61
2022/12/03 04:41:49;;;;;;;;;;;;;;;0.64;97.22;102148.97;5033528;28;20400;-61
2022/12/03 04:44:32;;;;;;;;;;;;;;;0.58;98.05;102156.94;5033850;28;20276;-61
2022/12/03 04:47:02;;;;;;;;;;;;;;;0.59;97.63;102144.16;5033800;28;20399;-62
2022/12/03 04:49:27;;;;;;;;;;;;;;;0.62;98.25;102151.91;5034086;28;19920;-62
2022/12/03 04:51:52;;;;;;;;;;;;;;;0.70;97.34;102153.63;5033597;28;19925;-61
2022/12/03 04:54:17;;;;;;;;;;;;;;;0.60;97.76;102143.97;5033290;28;20020;-61
2022/12/03 04:56:43;;;;;;;;;;;;;;;0.62;97.97;102136.41;5030586;28;19917;-61
2022/12/03 04:59:08;;;;;;;;;;;;;;;0.59;98.46;102133.25;5033184;28;19919;-61
2022/12/03 05:01:33;;;;;;;;;;;;;;;0.67;98.38;102141.22;5033474;28;19919;-62
2022/12/03 05:03:58;;;;;;;;;;;;;;;0.62;98.07;102141.84;5033516;28;19920;-61
2022/12/03 05:06:24;;;;;;;;;;;;;;;0.59;98.04;102131.41;5033347;28;20387;-61
2022/12/03 05:08:49;;;;;;;;;;;;;;;0.59;98.73;102131.41;5033150;28;20258;-61
2022/12/03 05:11:14;;;;;;;;;;;;;;;0.61;98.34;102137.44;5033147;28;19913;-61
2022/12/03 05:13:39;;;;;;;;;;;;;;;0.69;98.48;102136.41;5033011;28;20215;-61
2022/12/03 05:16:05;;;;;;;;;;;;;;;0.58;98.80;102131.59;5032890;28;20269;-61
2022/12/03 05:18:30;;;;;;;;;;;;;;;0.60;98.88;102127.63;5031342;28;19920;-59
2022/12/03 05:20:55;;;;;;;;;;;;;;;0.55;99.14;102137.47;5032776;28;19917;-60
2022/12/03 05:23:20;;;;;;;;;;;;;;;0.54;99.85;102138.50;5032684;28;20402;-62
2022/12/03 05:25:46;;;;;;;;;;;;;;;0.53;99.55;102134.09;5032788;28;19920;-60
2022/12/03 05:28:11;;;;;;;;;;;;;;;0.49;100.00;102135.53;5032821;28;19920;-60
2022/12/03 05:30:36;;;;;;;;;;;;;;;0.50;100.00;102129.06;5032659;28;19913;-60
2022/12/03 05:33:01;;;;;;;;;;;;;;;0.50;99.72;102132.63;5032734;28;19939;-63
2022/12/03 05:35:27;;;;;;;;;;;;;;;0.50;100.00;102123.63;5032820;28;20003;-61
2022/12/03 05:37:52;;;;;;;;;;;;;;;0.53;99.51;102126.75;5032734;28;19923;-62
2022/12/03 05:40:17;;;;;;;;;;;;;;;0.53;99.93;102125.94;5032698;28;19983;-60
2022/12/03 05:43:00;;;;;;;;;;;;;;;0.52;100.00;102119.63;5032094;28;19945;-59
2022/12/03 05:45:26;;;;;;;;;;;;;;;0.51;100.00;102119.84;5032875;28;19936;-59
2022/12/03 05:47:52;;;;;;;;;;;;;;;0.53;99.68;102113.13;5032866;28;19920;-61
2022/12/03 05:50:18;;;;;;;;;;;;;;;0.64;99.77;102119.03;5033100;28;19913;-59
2022/12/03 05:52:43;;;;;;;;;;;;;;;0.57;99.28;102116.28;5032664;28;20303;-59
2022/12/03 05:55:09;;;;;;;;;;;;;;;0.54;99.54;102114.81;5032556;28;19913;-61
2022/12/03 05:57:34;;;;;;;;;;;;;;;0.54;99.51;102114.81;5029814;28;19920;-59
2022/12/03 05:59:59;;;;;;;;;;;;;;;0.55;99.98;102113.78;5032113;28;19913;-59
2022/12/03 06:02:24;;;;;;;;;;;;;;;0.53;100.00;102112.31;5031986;28;19982;-61
2022/12/03 06:04:50;;;;;;;;;;;;;;;0.54;99.68;102116.72;5032312;28;20291;-59
2022/12/03 06:07:15;;;;;;;;;;;;;;;0.53;100.00;102109.59;5032237;28;19913;-60
2022/12/03 06:09:40;;;;;;;;;;;;;;;0.54;100.00;102111.28;5032317;28;19917;-62
2022/12/03 06:12:07;;;;;;;;;;;;;;;0.56;100.00;102109.19;5032321;28;19956;-60
2022/12/03 06:14:34;;;;;;;;;;;;;;;0.64;99.63;102111.72;5032351;28;20426;-60
2022/12/03 06:16:59;;;;;;;;;;;;;;;0.56;99.82;102115.47;5032559;28;19913;-61
2022/12/03 06:19:24;;;;;;;;;;;;;;;0.52;99.84;102114.19;5032071;28;19931;-60
2022/12/03 06:21:49;;;;;;;;;;;;;;;0.52;100.00;102106.00;5032128;28;19917;-60
2022/12/03 06:24:14;;;;;;;;;;;;;;;0.49;100.00;102109.16;5031924;28;19931;-61
2022/12/03 06:26:40;;;;;;;;;;;;;;;0.48;100.00;102112.94;5032346;28;19948;-61
2022/12/03 06:29:05;;;;;;;;;;;;;;;0.45;100.00;102116.91;5032472;28;20372;-61
2022/12/03 06:31:30;;;;;;;;;;;;;;;0.46;100.00;102115.03;5032135;28;19913;-61
2022/12/03 06:33:55;;;;;;;;;;;;;;;0.46;100.00;102113.16;5032253;28;19999;-61
2022/12/03 06:36:21;;;;;;;;;;;;;;;0.45;100.00;102119.66;5032096;28;20313;-60
2022/12/03 06:38:46;;;;;;;;;;;;;;;0.46;100.00;102105.00;5030596;28;19913;-61
2022/12/03 06:41:11;;;;;;;;;;;;;;;0.48;100.00;102112.94;5031840;28;19921;-61
2022/12/03 06:43:36;;;;;;;;;;;;;;;0.50;100.00;102107.28;5032082;28;19975;-60
2022/12/03 06:46:01;;;;;;;;;;;;;;;0.49;100.00;102109.16;5031745;28;20395;-60
2022/12/03 06:48:26;;;;;;;;;;;;;;;0.47;100.00;102111.25;5031836;28;19913;-61
2022/12/03 06:50:52;;;;;;;;;;;;;;;0.44;100.00;102107.06;5031603;28;20019;-61
2022/12/03 06:53:17;;;;;;;;;;;;;;;0.50;100.00;102107.28;5031890;28;19960;-61
2022/12/03 06:55:42;;;;;;;;;;;;;;;0.48;99.92;102102.03;5032613;28;19962;-62
2022/12/03 06:58:07;;;;;;;;;;;;;;;0.43;100.00;102099.94;5034735;28;19913;-62
2022/12/03 07:00:32;;;;;;;;;;;;;;;0.49;100.00;102098.28;5035843;28;20013;-61
2022/12/03 07:02:58;;;;;;;;;;;;;;;0.51;100.00;102106.22;5035715;28;19935;-61
2022/12/03 07:05:23;;;;;;;;;;;;;;;0.52;100.00;102103.28;5035631;28;20012;-61
2022/12/03 07:07:50;;;;;;;;;;;;;;;0.55;100.00;102096.63;5035564;28;19913;-62
2022/12/03 07:10:16;;;;;;;;;;;;;;;0.57;99.70;102095.34;5035734;28;19913;-61
2022/12/03 07:12:41;;;;;;;;;;;;;;;0.58;99.66;102097.03;5035396;28;19917;-62
2022/12/03 07:15:07;;;;;;;;;;;;;;;0.65;99.55;102098.91;5035507;28;19920;-61
2022/12/03 07:17:32;;;;;;;;;;;;;;;0.57;99.39;102103.53;5035529;28;19917;-61
2022/12/03 07:19:57;;;;;;;;;;;;;;;0.57;99.21;102105.38;5035370;28;19913;-62
2022/12/03 07:22:22;;;;;;;;;;;;;;;0.61;99.21;102109.38;5035242;28;19913;-61
2022/12/03 07:24:47;;;;;;;;;;;;;;;0.56;99.28;102106.47;5035367;28;19913;-62
2022/12/03 07:27:13;;;;;;;;;;;;;;;0.55;99.18;102097.44;5035353;28;20428;-62
2022/12/03 07:29:38;;;;;;;;;;;;;;;0.53;98.81;102096.81;5035193;28;19967;-59
2022/12/03 07:32:03;;;;;;;;;;;;;;;0.60;99.35;102102.25;5035147;28;19913;-61
2022/12/03 07:34:28;;;;;;;;;;;;;;;0.60;98.88;102099.53;5035133;28;20391;-61
2022/12/03 07:36:54;;;;;;;;;;;;;;;0.60;99.46;102100.41;5035287;28;19940;-61
2022/12/03 07:39:19;;;;;;;;;;;;;;;0.58;98.95;102099.75;5035023;28;20357;-61
2022/12/03 07:41:44;;;;;;;;;;;;;;;0.56;98.72;102101.84;5035061;28;20015;-60
2022/12/03 07:44:11;;;;;;;;;;;;;;;0.53;98.65;102099.53;5035060;28;19913;-60
2022/12/03 07:46:36;;;;;;;;;;;;;;;0.56;98.34;102099.13;5035254;28;19964;-60
2022/12/03 07:49:02;;;;;;;;;;;;;;;0.55;98.27;102102.06;5035156;28;19971;-60
2022/12/03 07:51:27;;;;;;;;;;;;;;;0.55;98.43;102100.16;5032644;28;19917;-61
2022/12/03 07:53:52;;;;;;;;;;;;;;;0.56;98.70;102103.75;5035344;28;20417;-61
2022/12/03 07:56:18;;;;;;;;;;;;;;;0.54;98.77;102103.94;5034904;28;20361;-60
2022/12/03 07:58:43;;;;;;;;;;;;;;;0.54;98.36;102108.56;5033340;28;19913;-60
2022/12/03 08:01:09;;;;;;;;;;;;;;;0.51;98.57;102107.09;5034699;28;20357;-61
2022/12/03 08:03:34;;;;;;;;;;;;;;;0.55;98.85;102108.34;5034305;28;19917;-60
2022/12/03 08:05:59;;;;;;;;;;;;;;;0.54;98.52;102105.81;5034290;28;19917;-59
2022/12/03 08:08:24;;;;;;;;;;;;;;;0.51;99.22;102098.06;5034511;28;19923;-60
2022/12/03 08:10:50;;;;;;;;;;;;;;;0.57;99.46;102105.38;5034703;28;19921;-61
2022/12/03 08:13:16;;;;;;;;;;;;;;;0.58;99.06;102110.66;5034574;28;19917;-61
2022/12/03 08:15:42;;;;;;;;;;;;;;;0.59;98.74;102116.91;5034773;28;19915;-61
2022/12/03 08:18:12;;;;;;;;;;;;;;;0.61;99.25;102118.38;5034819;28;19940;-62
2022/12/03 08:20:39;;;;;;;;;;;;;;;0.62;99.37;102111.91;5032987;28;19920;-60
2022/12/03 08:23:15;;;;;;;;;;;;;;;0.59;98.87;102122.38;5052698;28;20014;-58
2022/12/03 08:25:40;;;;;;;;;;;;;;;0.54;99.04;102120.28;5054072;28;19913;-60
2022/12/03 08:28:13;;;;;;;;;;;;;;;0.52;99.42;102116.91;5054057;28;19935;-60
2022/12/03 08:30:40;;;;;;;;;;;;;;;0.62;98.76;102116.53;5054007;28;19916;-61
2022/12/03 08:33:14;;;;;;;;;;;;;;;0.60;98.53;102111.28;5053751;28;19913;-61
2022/12/03 08:35:40;;;;;;;;;;;;;;;0.58;98.55;102112.53;5052640;28;19912;-60
2022/12/03 08:38:09;;;;;;;;;;;;;;;0.59;98.34;102127.81;5053600;28;19916;-60
2022/12/03 08:40:36;;;;;;;;;;;;;;;0.57;97.95;102119.88;5053528;28;19912;-61
2022/12/03 08:43:08;;;;;;;;;;;;;;;0.63;98.43;102123.66;5053825;28;19924;-61
2022/12/03 08:45:38;;;;;;;;;;;;;;;0.63;98.96;102118.19;5053930;28;19924;-63
2022/12/03 08:48:22;;;;;;;;;;;;;;;0.64;98.71;102117.16;5051090;28;19920;-63
2022/12/03 08:50:47;;;;;;;;;;;;;;;0.67;98.14;102113.16;5053470;28;19959;-60
2022/12/03 08:53:12;;;;;;;;;;;;;;;0.70;97.42;102119.03;5053717;28;19925;-62
2022/12/03 08:55:41;;;;;;;;;;;;;;;0.65;97.40;102112.53;5053573;28;20399;-62
2022/12/03 08:58:18;;;;;;;;;;;;;;;0.56;96.36;102115.47;5053291;28;19920;-58
2022/12/03 09:00:43;;;;;;;;;;;;;;;0.57;97.49;102117.13;5053299;28;19997;-61
2022/12/03 09:03:11;;;;;;;;;;;;;;;0.58;97.18;102112.53;5053223;28;20338;-62
2022/12/03 09:05:36;;;;;;;;;;;;;;;0.61;96.58;102109.38;5053234;28;19912;-63
2022/12/03 09:08:02;;;;;;;;;;;;;;;0.62;96.32;102117.34;5053469;28;19916;-61
2022/12/03 09:10:27;;;;;;;;;;;;;;;0.58;95.94;102115.25;5053431;28;19912;-62
2022/12/03 09:12:52;;;;;;;;;;;;;;;0.57;95.56;102108.97;5053315;28;19940;-61
2022/12/03 09:15:32;;;;;;;;;;;;;;;0.60;96.42;102114.00;5030601;28;19997;-61
2022/12/03 09:17:57;;;;;;;;;;;;;;;0.66;96.81;102114.22;5042704;28;20353;-61
2022/12/03 09:20:23;;;;;;;;;;;;;;;0.65;97.10;102117.97;5032884;28;19948;-61
2022/12/03 09:22:48;;;;;;;;;;;;;;;0.69;96.80;102120.06;5032766;28;20028;-61
2022/12/03 09:25:13;;;;;;;;;;;;;;;0.67;96.68;102122.16;5032604;28;20276;-62
2022/12/03 09:27:38;;;;;;;;;;;;;;;0.69;96.67;102116.53;5032585;28;20387;-60
2022/12/03 09:30:04;;;;;;;;;;;;;;;0.68;97.32;102115.66;5033093;28;19964;-61
2022/12/03 09:32:29;;;;;;;;;;;;;;;0.73;97.09;102115.03;5032613;28;20352;-61
2022/12/03 09:34:55;;;;;;;;;;;;;;;0.75;98.09;102113.81;5032996;28;20276;-60
2022/12/03 09:37:21;;;;;;;;;;;;;;;0.83;97.45;102107.31;5032757;28;19971;-60
2022/12/03 09:39:46;;;;;;;;;;;;;;;0.86;97.36;102106.88;5032988;28;19940;-61
2022/12/03 09:42:11;;;;;;;;;;;;;;;0.84;97.92;102110.88;5030060;28;19944;-61
2022/12/03 09:44:37;;;;;;;;;;;;;;;0.81;96.43;102106.66;5032264;28;19936;-60
2022/12/03 09:47:03;;;;;;;;;;;;;;;0.82;97.17;102111.06;5032603;28;19920;-60
2022/12/03 09:49:30;;;;;;;;;;;;;;;0.88;97.04;102109.41;5032675;28;19916;-60
2022/12/03 09:51:56;;;;;;;;;;;;;;;0.88;96.74;102106.66;5032523;28;19924;-62
2022/12/03 09:54:23;;;;;;;;;;;;;;;0.84;96.85;102098.09;5028817;28;19921;-62
2022/12/03 09:56:48;;;;;;;;;;;;;;;0.85;97.11;102090.75;5011895;28;19913;-61
2022/12/03 09:59:14;;;;;;;;;;;;;;;0.87;97.06;102091.38;5012179;28;20268;-62
2022/12/03 10:01:40;;;;;;;;;;;;;;;0.88;96.97;102093.03;5027557;28;20011;-63
2022/12/03 10:04:05;;;;;;;;;;;;;;;0.83;96.45;102090.94;5012662;28;20000;-62
2022/12/03 10:06:31;;;;;;;;;;;;;;;0.89;96.73;102092.84;5027717;28;19959;-62
2022/12/03 10:08:58;;;;;;;;;;;;;;;0.85;96.65;102091.59;5012394;28;19964;-61
2022/12/03 10:11:24;;;;;;;;;;;;;;;0.84;96.85;102089.09;5012507;28;19971;-62
2022/12/03 10:13:50;;;;;;;;;;;;;;;0.82;97.37;102074.81;5012602;28;19922;-62
2022/12/03 10:16:17;;;;;;;;;;;;;;;0.85;97.49;102086.13;5012550;28;20356;-63
2022/12/03 10:18:51;;;;;;;;;;;;;;;0.89;97.68;102075.66;5028580;28;19916;-62
2022/12/03 10:21:16;;;;;;;;;;;;;;;0.88;96.24;102069.38;5031639;28;20375;-62
2022/12/03 10:23:42;;;;;;;;;;;;;;;0.93;97.06;102066.03;5031707;28;19913;-62
2022/12/03 10:26:07;;;;;;;;;;;;;;;0.89;96.02;102070.22;5032173;28;20320;-59
2022/12/03 10:28:34;;;;;;;;;;;;;;;0.92;96.57;102067.88;5032175;28;19928;-61
2022/12/03 10:31:00;;;;;;;;;;;;;;;0.84;95.72;102072.75;5034919;28;19957;-60
2022/12/03 10:33:30;;;;;;;;;;;;;;;0.84;96.54;102064.56;5035221;28;19913;-59
2022/12/03 10:36:13;;;;;;;;;;;;;;;0.78;94.58;102071.69;5035543;28;19916;-60
2022/12/03 10:38:38;;;;;;;;;;;;;;;0.76;95.01;102062.88;5034098;28;20627;-64
2022/12/03 10:41:18;;;;;;;;;;;;;;;0.75;94.79;102056.59;5034022;28;19952;-61
2022/12/03 10:43:43;;;;;;;;;;;;;;;0.77;95.22;102053.66;5035052;28;19924;-61
2022/12/03 10:46:10;;;;;;;;;;;;;;;0.76;93.63;102044.63;5034886;28;19917;-61
2022/12/03 10:48:36;;;;;;;;;;;;;;;0.80;94.26;102042.34;5035354;28;19917;-62
2022/12/03 10:51:02;;;;;;;;;;;;;;;0.86;93.43;102040.66;5033718;28;19991;-62
2022/12/03 10:53:29;;;;;;;;;;;;;;;0.87;91.68;102043.19;5034422;28;20361;-60
2022/12/03 10:55:58;;;;;;;;;;;;;;;0.84;92.21;102029.16;5034541;28;19934;-59
2022/12/03 10:58:24;;;;;;;;;;;;;;;0.86;92.34;102016.97;5034411;28;19956;-63
2022/12/03 11:00:51;;;;;;;;;;;;;;;0.87;91.33;102021.38;5034710;28;19913;-61
2022/12/03 11:03:18;;;;;;;;;;;;;;;0.86;89.10;102019.72;5034788;28;20007;-61
2022/12/03 11:05:43;;;;;;;;;;;;;;;0.82;89.85;102020.34;5034557;28;19928;-60
2022/12/03 11:08:16;;;;;;;;;;;;;;;0.85;88.85;102019.94;5033071;28;19917;-61
2022/12/03 11:10:41;;;;;;;;;;;;;;;0.87;90.35;102018.66;5034416;28;19917;-61
2022/12/03 11:13:26;;;;;;;;;;;;;;;0.87;91.21;102017.81;5034183;28;20395;-61
2022/12/03 11:15:52;;;;;;;;;;;;;;;0.93;89.70;102014.25;5033881;28;19994;-61
2022/12/03 11:18:43;;;;;;;;;;;;;;;0.90;89.63;102010.03;5034099;28;19921;-61
2022/12/03 11:21:09;;;;;;;;;;;;;;;0.85;89.87;102009.84;5031059;28;19940;-61
2022/12/03 11:23:44;;;;;;;;;;;;;;;0.82;89.44;102007.53;5033581;28;20016;-61
2022/12/03 11:26:10;;;;;;;;;;;;;;;0.84;91.05;102010.06;5033347;28;19920;-61
2022/12/03 11:28:37;;;;;;;;;;;;;;;0.91;91.36;102000.00;5033532;28;19913;-61
2022/12/03 11:31:10;;;;;;;;;;;;;;;0.95;90.43;101997.69;5032136;28;19967;-61
2022/12/03 11:33:37;;;;;;;;;;;;;;;0.90;89.24;101996.41;5032629;28;20011;-62
2022/12/03 11:36:02;;;;;;;;;;;;;;;0.89;89.18;101992.03;5031908;28;19920;-61
2022/12/03 11:38:36;;;;;;;;;;;;;;;0.85;89.70;101989.97;5033648;28;19917;-61
2022/12/03 11:41:28;;;;;;;;;;;;;;;0.93;91.69;101989.72;5030772;28;19935;-59
2022/12/03 11:43:56;;;;;;;;;;;;;;;1.05;90.00;101985.28;5031900;28;19924;-60
2022/12/03 11:46:36;;;;;;;;;;;;;;;0.97;89.46;101985.50;5033378;28;19947;-62
2022/12/03 11:49:15;;;;;;;;;;;;;;;0.90;89.13;101974.63;5033454;28;19979;-62
2022/12/03 11:51:42;;;;;;;;;;;;;;;0.94;90.62;101980.50;5033331;28;19975;-60
2022/12/03 11:54:14;;;;;;;;;;;;;;;0.85;89.13;101974.44;5033429;28;19917;-61
2022/12/03 11:56:42;;;;;;;;;;;;;;;0.83;90.09;101968.34;5033752;28;19921;-63
2022/12/03 11:59:11;;;;;;;;;;;;;;;0.85;89.81;101968.16;5033321;28;19917;-61
2022/12/03 12:01:38;;;;;;;;;;;;;;;0.90;89.61;101973.78;5033171;28;19917;-61
2022/12/03 12:04:04;;;;;;;;;;;;;;;0.90;89.71;101973.78;5032958;28;20000;-61
2022/12/03 12:06:38;;;;;;;;;;;;;;;0.91;89.27;101975.47;5033170;28;20692;-60
2022/12/03 12:09:03;;;;;;;;;;;;;;;0.93;89.56;101965.19;5033365;28;19917;-60
2022/12/03 12:11:29;;;;;;;;;;;;;;;1.00;90.43;101963.28;5031773;28;19913;-60
2022/12/03 12:13:57;;;;;;;;;;;;;;;1.04;88.98;101960.97;5031608;28;19923;-60
2022/12/03 12:16:41;;;;;;;;;;;;;;;1.07;89.73;101955.91;5033237;28;19966;-61
2022/12/03 12:19:25;;;;;;;;;;;;;;;1.15;90.20;101960.31;5032567;28;19983;-61
2022/12/03 12:21:50;;;;;;;;;;;;;;;1.11;89.60;101960.94;5030945;28;19920;-61
2022/12/03 12:24:31;;;;;;;;;;;;;;;1.02;88.12;101954.88;5031989;28;19986;-61
2022/12/03 12:26:57;;;;;;;;;;;;;;;0.99;88.63;101950.72;5031612;28;19921;-60
2022/12/03 12:29:22;;;;;;;;;;;;;;;1.08;89.91;101954.06;5028990;28;19917;-61
2022/12/03 12:31:48;;;;;;;;;;;;;;;1.12;90.22;101952.56;5030878;28;20383;-60
2022/12/03 12:34:13;;;;;;;;;;;;;;;1.07;88.76;101942.28;5031071;28;19952;-60
2022/12/03 12:36:39;;;;;;;;;;;;;;;1.02;88.53;101950.28;5031426;28;19917;-60
2022/12/03 12:39:09;;;;;;;;;;;;;;;1.03;89.92;101940.22;5032218;28;20011;-60
2022/12/03 12:41:34;;;;;;;;;;;;;;;1.00;89.54;101930.59;5031978;28;19917;-61
2022/12/03 12:44:00;;;;;;;;;;;;;;;1.01;90.57;101932.25;5032387;28;19917;-60
2022/12/03 12:46:25;;;;;;;;;;;;;;;0.98;89.00;101921.78;5032730;28;20388;-61
2022/12/03 12:48:50;;;;;;;;;;;;;;;1.01;90.29;101925.97;5033006;28;20388;-60
2022/12/03 12:51:17;;;;;;;;;;;;;;;1.01;90.55;101924.09;5032148;28;19917;-60
2022/12/03 12:53:43;;;;;;;;;;;;;;;0.96;90.03;101918.44;5031776;28;20361;-61
2022/12/03 12:56:25;;;;;;;;;;;;;;;0.98;88.97;101913.59;5031490;28;19935;-61
2022/12/03 12:58:51;;;;;;;;;;;;;;;0.89;90.02;101920.34;5031168;28;19920;-61